Meteo Giornale » Osservazioni meteo Francia » Nizza

ore: 20:30 - Osservazioni Meteo Nizza
Lat. 43° 39' N Lon. 7° 12' E Alt. 4 metri s.l.m.

sereno Europe/Paris

27 °C

Sereno

Temp. 24 Ore

24 °C

29 °C

Ovest/Nord-Ovest

13 Km/h

Dew point 15 °C

Umidità 47 %

Visibilità  10 Km

Il sole sorge alle ore 06:42

Il sole tramonta alle ore 20:25

Data e Ora Cielo e Fenomeni T °C DP °C Um. % Pres. hPa Vis. km Vento km/h
Oggi h: 20:30 sereno Sereno 27 15 47 1018 10 O/NO 13
Oggi h: 19:30 molto_nuvoloso Molto Nuvoloso 27 22 74 1018 10 SO 9.3
Oggi h: 19:00 molto_nuvoloso Molto Nuvoloso 28 21 65 1018 10 O/SO 9.3
Oggi h: 18:30 molto_nuvoloso Molto Nuvoloso 28 21 65 1018 10 SO 11.1
Oggi h: 18:00 molto_nuvoloso Molto Nuvoloso 28 22 69 1018 10 S 13
Oggi h: 17:30 molto_nuvoloso Molto Nuvoloso 29 22 66 1018 10 S 14.8
Oggi h: 17:00 molto_nuvoloso Molto Nuvoloso 29 22 66 1018 10 S 13
Oggi h: 16:30 molto_nuvoloso Molto Nuvoloso 29 21 62 1018 10 S 11.1
Oggi h: 16:00 molto_nuvoloso Molto Nuvoloso 29 21 62 1018 10 S/SO 13
Oggi h: 15:30 molto_nuvoloso Molto Nuvoloso 28 21 65 1018 10 S 16.7
Oggi h: 15:00 molto_nuvoloso Molto Nuvoloso 28 22 69 1018 10 S 14.8
Oggi h: 14:30 nuvoloso Nuvoloso 29 21 62 1018 10 S/SO 16.7
Oggi h: 14:00 nuvoloso Nuvoloso 29 21 62 1019 10 S/SO 14.8
Oggi h: 13:30 nuvoloso Nuvoloso 28 21 65 1019 10 S/SO 13
Oggi h: 13:00 nuvoloso Nuvoloso 28 22 69 1019 10 S 11.1
Oggi h: 12:30 molto_nuvoloso Molto Nuvoloso 28 21 65 1019 10 N 5.5
Oggi h: 12:00 molto_nuvoloso Molto Nuvoloso 28 21 65 1019 10 N 5.5
Oggi h: 11:30 molto_nuvoloso Molto Nuvoloso 27 21 69 1019 10 N 5.5
Oggi h: 11:00 molto_nuvoloso Molto Nuvoloso 27 19 61 1018 10 E/SE 7.4
Oggi h: 10:30 molto_nuvoloso Molto Nuvoloso 28 16 48 1018 10 N 5.5
Oggi h: 10:00 molto_nuvoloso Molto Nuvoloso 27 16 50 1018 10 N/NO 9.3
Oggi h: 09:30 nuvoloso Nuvoloso 26 16 54 1018 10 N/NO 14.8
Oggi h: 09:00 nuvoloso Nuvoloso 26 16 54 1018 10 N/NO 13
Oggi h: 08:30 nuvoloso Nuvoloso 25 16 57 1018 10 N/NO 14.8
Oggi h: 08:00 sereno Sereno 25 16 57 1018 10 N/NO 14.8
Oggi h: 07:30 sereno Sereno 24 16 60 1017 10 N 13
Oggi h: 07:00 sereno Sereno 24 16 60 1017 10 N/NO 13
Oggi h: 06:30 sereno Sereno 24 16 60 1017 10 N/NO 14.8
Oggi h: 06:00 sereno Sereno 24 16 60 1017 10 N/NO 13
Oggi h: 05:30 sereno Sereno 24 16 60 1017 10 N/NO 13
Oggi h: 05:00 sereno Sereno 24 16 60 1017 10 N/NO 11.1
Oggi h: 04:30 sereno Sereno 25 17 61 1017 10 N/NO 13
Oggi h: 04:00 sereno Sereno 25 17 61 1017 10 N/NO 11.1
Oggi h: 03:30 sereno Sereno 25 17 61 1017 10 N/NO 9.3
Oggi h: 03:00 sereno Sereno 25 18 65 1017 10 N/NO 11.1
Oggi h: 02:30 sereno Sereno 25 18 65 1017 10 N/NO 11.1
Oggi h: 02:00 sereno Sereno 25 18 65 1017 10 N/NO 11.1
Oggi h: 01:30 sereno Sereno 25 19 69 1017 10 N/NO 11.1
Oggi h: 01:00 sereno Sereno 25 19 69 1018 10 N/NO 9.3
Oggi h: 00:30 sereno Sereno 25 18 65 1018 10 NO 7.4
Oggi h: 00:00 sereno Sereno 25 18 65 1018 10 NO 9.3
Ieri h: 23:00 sereno Sereno 25 18 65 1018 10 N 5.5
Ieri h: 22:30 sereno Sereno 26 20 69 1017 10 N 3.7
Ieri h: 22:00 sereno Sereno 25 20 73 1017 10 N 0
Ieri h: 21:30 sereno Sereno 26 20 69 1017 10 N 0
Ieri h: 21:00 sereno Sereno 26 20 69 1017 10 N 0